Decoded Metar for GMMX (MARRAKECH in MOROCCO) (IATA:RAK) | Meteo·Mobile Aviation Weather
aviador You're here:

GMMX Decoded Metar

MARRAKECH in MOROCCO
Report Time2019-02-16 17:30:00
UTC Time2019-02-16 17:51:05
Flight Rules vfr VFR
WindVRB at 02 kt
Visibility9999 m
Phenomena:N/A
Clouds:Scattered 026 Hf
Broken 200 Hf
Expected CloudBase > 8,000 ft AGL from Temp-Dew spread
Ceiling20,000 ft
Temp19°C (ISA +7)
Dew Point-1°C (26% RH)
AAT16.2°C
QNH1018 hPa
Density Alt2,267 ft
Elevation1,529 ft
Report Wrong Elevation
Raw Report
GMMX 161730Z VRB02KT 9999 SCT026 BKN200 19/M01 Q1018 NOSIG=

Extra information for GMMX:More info

Metar Taf Metar & Taf Last 4 Metars F.Rules Stats Wind Profile Meteogram Temp Stats Airport Information Weather charts Add Link Nearby VenuesMetar ALERT Operation Metar Decoded Social comments